sensor_id;sensor_type;location;lat;lon;timestamp;P1;durP1;ratioP1;P2;durP2;ratioP2
781;SDS011;374;52.568;13.402;2023-07-29T00:02:05;8.30;;;7.60;;
781;SDS011;374;52.568;13.402;2023-07-29T00:04:31;9.37;;;8.20;;
781;SDS011;374;52.568;13.402;2023-07-29T00:06:56;9.17;;;8.27;;
781;SDS011;374;52.568;13.402;2023-07-29T00:09:22;9.00;;;8.20;;
781;SDS011;374;52.568;13.402;2023-07-29T00:11:47;8.37;;;7.57;;
781;SDS011;374;52.568;13.402;2023-07-29T00:14:15;9.10;;;8.20;;
781;SDS011;374;52.568;13.402;2023-07-29T00:16:41;9.20;;;8.30;;
781;SDS011;374;52.568;13.402;2023-07-29T00:19:07;8.70;;;7.87;;
781;SDS011;374;52.568;13.402;2023-07-29T00:21:33;9.43;;;8.40;;
781;SDS011;374;52.568;13.402;2023-07-29T00:23:59;9.07;;;8.17;;
781;SDS011;374;52.568;13.402;2023-07-29T00:26:26;8.73;;;8.03;;
781;SDS011;374;52.568;13.402;2023-07-29T00:28:53;9.30;;;8.40;;
781;SDS011;374;52.568;13.402;2023-07-29T00:31:22;8.97;;;8.17;;
781;SDS011;374;52.568;13.402;2023-07-29T00:33:48;10.20;;;8.30;;
781;SDS011;374;52.568;13.402;2023-07-29T00:36:13;9.07;;;8.17;;
781;SDS011;374;52.568;13.402;2023-07-29T00:38:41;9.40;;;8.50;;
781;SDS011;374;52.568;13.402;2023-07-29T00:41:07;9.27;;;8.37;;
781;SDS011;374;52.568;13.402;2023-07-29T00:43:41;9.40;;;8.53;;
781;SDS011;374;52.568;13.402;2023-07-29T00:46:07;9.20;;;8.30;;
781;SDS011;374;52.568;13.402;2023-07-29T00:48:34;9.43;;;8.53;;
781;SDS011;374;52.568;13.402;2023-07-29T00:51:02;10.60;;;9.13;;
781;SDS011;374;52.568;13.402;2023-07-29T00:53:28;10.70;;;9.60;;
781;SDS011;374;52.568;13.402;2023-07-29T00:55:53;9.93;;;9.00;;
781;SDS011;374;52.568;13.402;2023-07-29T00:58:19;9.47;;;8.30;;
781;SDS011;374;52.568;13.402;2023-07-29T01:00:45;10.37;;;9.37;;
781;SDS011;374;52.568;13.402;2023-07-29T01:03:10;10.13;;;9.23;;
781;SDS011;374;52.568;13.402;2023-07-29T01:05:47;9.83;;;8.90;;
781;SDS011;374;52.568;13.402;2023-07-29T01:08:31;9.43;;;8.63;;
781;SDS011;374;52.568;13.402;2023-07-29T01:11:04;10.57;;;8.87;;
781;SDS011;374;52.568;13.402;2023-07-29T01:13:46;9.37;;;8.43;;
781;SDS011;374;52.568;13.402;2023-07-29T01:16:17;9.83;;;8.93;;
781;SDS011;374;52.568;13.402;2023-07-29T01:19:06;9.90;;;8.93;;
781;SDS011;374;52.568;13.402;2023-07-29T01:21:37;10.00;;;9.00;;
781;SDS011;374;52.568;13.402;2023-07-29T01:24:04;10.67;;;9.67;;
781;SDS011;374;52.568;13.402;2023-07-29T01:26:29;10.07;;;9.17;;
781;SDS011;374;52.568;13.402;2023-07-29T01:28:56;9.90;;;8.90;;
781;SDS011;374;52.568;13.402;2023-07-29T01:31:33;9.20;;;8.30;;
781;SDS011;374;52.568;13.402;2023-07-29T01:34:06;10.30;;;9.30;;
781;SDS011;374;52.568;13.402;2023-07-29T01:36:42;10.50;;;9.50;;
781;SDS011;374;52.568;13.402;2023-07-29T01:39:10;9.00;;;8.20;;
781;SDS011;374;52.568;13.402;2023-07-29T01:41:36;11.10;;;9.90;;
781;SDS011;374;52.568;13.402;2023-07-29T01:44:02;10.50;;;9.53;;
781;SDS011;374;52.568;13.402;2023-07-29T01:46:33;10.13;;;9.20;;
781;SDS011;374;52.568;13.402;2023-07-29T01:48:59;10.57;;;9.60;;
781;SDS011;374;52.568;13.402;2023-07-29T01:51:27;10.17;;;9.37;;
781;SDS011;374;52.568;13.402;2023-07-29T01:53:58;11.73;;;10.27;;
781;SDS011;374;52.568;13.402;2023-07-29T01:56:24;10.43;;;9.43;;
781;SDS011;374;52.568;13.402;2023-07-29T01:58:50;9.10;;;8.37;;
781;SDS011;374;52.568;13.402;2023-07-29T02:01:15;11.23;;;10.30;;
781;SDS011;374;52.568;13.402;2023-07-29T02:03:43;8.90;;;8.00;;
781;SDS011;374;52.568;13.402;2023-07-29T02:06:09;9.70;;;8.90;;
781;SDS011;374;52.568;13.402;2023-07-29T02:08:34;9.77;;;8.80;;
781;SDS011;374;52.568;13.402;2023-07-29T02:11:00;9.70;;;8.87;;
781;SDS011;374;52.568;13.402;2023-07-29T02:13:25;10.07;;;9.17;;
781;SDS011;374;52.568;13.402;2023-07-29T02:15:54;12.63;;;9.63;;
781;SDS011;374;52.568;13.402;2023-07-29T02:18:20;10.30;;;8.80;;
781;SDS011;374;52.568;13.402;2023-07-29T02:20:45;10.67;;;9.60;;
781;SDS011;374;52.568;13.402;2023-07-29T02:23:14;10.03;;;9.13;;
781;SDS011;374;52.568;13.402;2023-07-29T02:25:41;11.07;;;9.97;;
781;SDS011;374;52.568;13.402;2023-07-29T02:28:06;10.40;;;9.33;;
781;SDS011;374;52.568;13.402;2023-07-29T02:30:31;10.70;;;9.70;;
781;SDS011;374;52.568;13.402;2023-07-29T02:32:57;9.30;;;8.50;;
781;SDS011;374;52.568;13.402;2023-07-29T02:35:22;10.20;;;9.10;;
781;SDS011;374;52.568;13.402;2023-07-29T02:37:48;10.90;;;10.00;;
781;SDS011;374;52.568;13.402;2023-07-29T02:40:13;10.50;;;9.50;;
781;SDS011;374;52.568;13.402;2023-07-29T02:42:39;11.03;;;9.93;;
781;SDS011;374;52.568;13.402;2023-07-29T02:45:04;10.10;;;9.10;;
781;SDS011;374;52.568;13.402;2023-07-29T02:47:34;9.57;;;8.67;;
781;SDS011;374;52.568;13.402;2023-07-29T02:50:00;11.00;;;9.90;;
781;SDS011;374;52.568;13.402;2023-07-29T02:52:25;9.90;;;9.00;;
781;SDS011;374;52.568;13.402;2023-07-29T02:54:53;9.80;;;8.80;;
781;SDS011;374;52.568;13.402;2023-07-29T02:57:19;10.83;;;9.63;;
781;SDS011;374;52.568;13.402;2023-07-29T02:59:45;11.23;;;10.20;;
781;SDS011;374;52.568;13.402;2023-07-29T03:02:11;11.23;;;10.20;;
781;SDS011;374;52.568;13.402;2023-07-29T03:04:36;12.40;;;10.03;;
781;SDS011;374;52.568;13.402;2023-07-29T03:07:02;11.70;;;10.60;;
781;SDS011;374;52.568;13.402;2023-07-29T03:09:28;12.03;;;10.60;;
781;SDS011;374;52.568;13.402;2023-07-29T03:11:53;10.90;;;9.90;;
781;SDS011;374;52.568;13.402;2023-07-29T03:14:19;12.53;;;10.00;;
781;SDS011;374;52.568;13.402;2023-07-29T03:16:45;13.07;;;11.60;;
781;SDS011;374;52.568;13.402;2023-07-29T03:19:11;11.73;;;10.57;;
781;SDS011;374;52.568;13.402;2023-07-29T03:21:37;10.80;;;9.80;;
781;SDS011;374;52.568;13.402;2023-07-29T03:24:06;12.10;;;11.00;;
781;SDS011;374;52.568;13.402;2023-07-29T03:26:32;13.33;;;11.00;;
781;SDS011;374;52.568;13.402;2023-07-29T03:28:57;12.57;;;11.23;;
781;SDS011;374;52.568;13.402;2023-07-29T03:31:23;12.17;;;11.07;;
781;SDS011;374;52.568;13.402;2023-07-29T03:33:48;11.27;;;10.27;;
781;SDS011;374;52.568;13.402;2023-07-29T03:36:14;12.10;;;10.90;;
781;SDS011;374;52.568;13.402;2023-07-29T03:38:40;12.20;;;10.90;;
781;SDS011;374;52.568;13.402;2023-07-29T03:41:07;12.70;;;11.33;;
781;SDS011;374;52.568;13.402;2023-07-29T03:43:35;10.80;;;9.90;;
781;SDS011;374;52.568;13.402;2023-07-29T03:46:01;11.10;;;10.10;;
781;SDS011;374;52.568;13.402;2023-07-29T03:48:26;13.10;;;11.70;;
781;SDS011;374;52.568;13.402;2023-07-29T03:50:52;12.67;;;11.37;;
781;SDS011;374;52.568;13.402;2023-07-29T03:53:17;11.20;;;10.20;;
781;SDS011;374;52.568;13.402;2023-07-29T03:55:43;11.40;;;10.30;;
781;SDS011;374;52.568;13.402;2023-07-29T03:58:08;13.07;;;11.77;;
781;SDS011;374;52.568;13.402;2023-07-29T04:00:34;13.00;;;11.70;;
781;SDS011;374;52.568;13.402;2023-07-29T04:02:59;12.77;;;10.63;;
781;SDS011;374;52.568;13.402;2023-07-29T04:05:25;11.23;;;10.13;;
781;SDS011;374;52.568;13.402;2023-07-29T04:07:50;12.50;;;11.20;;
781;SDS011;374;52.568;13.402;2023-07-29T04:10:17;12.10;;;11.00;;
781;SDS011;374;52.568;13.402;2023-07-29T04:12:42;11.90;;;10.80;;
781;SDS011;374;52.568;13.402;2023-07-29T04:15:08;12.53;;;10.63;;
781;SDS011;374;52.568;13.402;2023-07-29T04:17:34;12.07;;;10.80;;
781;SDS011;374;52.568;13.402;2023-07-29T04:19:59;12.23;;;11.03;;
781;SDS011;374;52.568;13.402;2023-07-29T04:22:25;14.43;;;12.80;;
781;SDS011;374;52.568;13.402;2023-07-29T04:24:50;11.77;;;10.67;;
781;SDS011;374;52.568;13.402;2023-07-29T04:27:15;11.03;;;9.93;;
781;SDS011;374;52.568;13.402;2023-07-29T04:29:41;12.50;;;11.20;;
781;SDS011;374;52.568;13.402;2023-07-29T04:32:06;10.60;;;9.70;;
781;SDS011;374;52.568;13.402;2023-07-29T04:34:32;11.40;;;10.30;;
781;SDS011;374;52.568;13.402;2023-07-29T04:36:57;10.20;;;9.27;;
781;SDS011;374;52.568;13.402;2023-07-29T04:39:23;10.53;;;9.53;;
781;SDS011;374;52.568;13.402;2023-07-29T04:41:51;10.50;;;9.50;;
781;SDS011;374;52.568;13.402;2023-07-29T04:44:17;11.47;;;10.37;;
781;SDS011;374;52.568;13.402;2023-07-29T04:46:42;10.50;;;9.60;;
781;SDS011;374;52.568;13.402;2023-07-29T04:49:08;10.97;;;9.70;;
781;SDS011;374;52.568;13.402;2023-07-29T04:51:33;11.00;;;10.00;;
781;SDS011;374;52.568;13.402;2023-07-29T04:53:59;10.93;;;10.03;;
781;SDS011;374;52.568;13.402;2023-07-29T04:56:24;12.03;;;10.70;;
781;SDS011;374;52.568;13.402;2023-07-29T04:58:50;10.30;;;9.13;;
781;SDS011;374;52.568;13.402;2023-07-29T05:01:16;11.33;;;10.23;;
781;SDS011;374;52.568;13.402;2023-07-29T05:03:41;11.10;;;10.10;;
781;SDS011;374;52.568;13.402;2023-07-29T05:06:07;12.07;;;10.87;;
781;SDS011;374;52.568;13.402;2023-07-29T05:08:32;12.27;;;11.10;;
781;SDS011;374;52.568;13.402;2023-07-29T05:10:58;12.67;;;11.37;;
781;SDS011;374;52.568;13.402;2023-07-29T05:13:23;11.63;;;10.60;;
781;SDS011;374;52.568;13.402;2023-07-29T05:15:49;11.93;;;10.83;;
781;SDS011;374;52.568;13.402;2023-07-29T05:18:15;12.37;;;9.73;;
781;SDS011;374;52.568;13.402;2023-07-29T05:20:41;11.80;;;10.73;;
781;SDS011;374;52.568;13.402;2023-07-29T05:23:07;11.10;;;10.10;;
781;SDS011;374;52.568;13.402;2023-07-29T05:25:35;12.03;;;11.03;;
781;SDS011;374;52.568;13.402;2023-07-29T05:28:01;10.23;;;9.33;;
781;SDS011;374;52.568;13.402;2023-07-29T05:30:28;11.77;;;9.93;;
781;SDS011;374;52.568;13.402;2023-07-29T05:32:57;11.53;;;10.53;;
781;SDS011;374;52.568;13.402;2023-07-29T05:35:23;10.20;;;9.40;;
781;SDS011;374;52.568;13.402;2023-07-29T05:37:48;9.90;;;9.00;;
781;SDS011;374;52.568;13.402;2023-07-29T05:40:14;9.50;;;8.50;;
781;SDS011;374;52.568;13.402;2023-07-29T05:42:39;9.27;;;8.10;;
781;SDS011;374;52.568;13.402;2023-07-29T05:45:05;9.63;;;8.73;;
781;SDS011;374;52.568;13.402;2023-07-29T05:47:31;11.10;;;8.90;;
781;SDS011;374;52.568;13.402;2023-07-29T05:49:57;9.40;;;8.50;;
781;SDS011;374;52.568;13.402;2023-07-29T05:52:22;12.57;;;8.03;;
781;SDS011;374;52.568;13.402;2023-07-29T05:54:48;12.40;;;9.03;;
781;SDS011;374;52.568;13.402;2023-07-29T05:57:13;12.07;;;9.13;;
781;SDS011;374;52.568;13.402;2023-07-29T05:59:39;9.90;;;7.67;;
781;SDS011;374;52.568;13.402;2023-07-29T06:02:04;9.30;;;8.13;;
781;SDS011;374;52.568;13.402;2023-07-29T06:04:30;9.50;;;8.20;;
781;SDS011;374;52.568;13.402;2023-07-29T06:06:56;11.60;;;7.97;;
781;SDS011;374;52.568;13.402;2023-07-29T06:09:22;15.30;;;9.20;;
781;SDS011;374;52.568;13.402;2023-07-29T06:11:47;11.50;;;9.00;;
781;SDS011;374;52.568;13.402;2023-07-29T06:14:13;11.27;;;9.13;;
781;SDS011;374;52.568;13.402;2023-07-29T06:16:38;10.00;;;9.00;;
781;SDS011;374;52.568;13.402;2023-07-29T06:19:04;10.73;;;9.73;;
781;SDS011;374;52.568;13.402;2023-07-29T06:21:30;11.00;;;9.63;;
781;SDS011;374;52.568;13.402;2023-07-29T06:23:55;8.50;;;7.70;;
781;SDS011;374;52.568;13.402;2023-07-29T06:26:21;11.93;;;9.57;;
781;SDS011;374;52.568;13.402;2023-07-29T06:28:46;9.57;;;8.30;;
781;SDS011;374;52.568;13.402;2023-07-29T06:31:12;8.23;;;7.43;;
781;SDS011;374;52.568;13.402;2023-07-29T06:33:37;8.37;;;7.57;;
781;SDS011;374;52.568;13.402;2023-07-29T06:36:03;8.63;;;7.70;;
781;SDS011;374;52.568;13.402;2023-07-29T06:38:29;9.50;;;7.87;;
781;SDS011;374;52.568;13.402;2023-07-29T06:40:55;8.17;;;7.47;;
781;SDS011;374;52.568;13.402;2023-07-29T06:43:20;7.67;;;6.97;;
781;SDS011;374;52.568;13.402;2023-07-29T06:45:46;8.17;;;7.40;;
781;SDS011;374;52.568;13.402;2023-07-29T06:48:11;8.17;;;7.47;;
781;SDS011;374;52.568;13.402;2023-07-29T06:50:37;8.93;;;8.13;;
781;SDS011;374;52.568;13.402;2023-07-29T06:53:03;8.87;;;7.97;;
781;SDS011;374;52.568;13.402;2023-07-29T06:55:28;9.10;;;8.20;;
781;SDS011;374;52.568;13.402;2023-07-29T06:57:54;13.20;;;8.07;;
781;SDS011;374;52.568;13.402;2023-07-29T07:00:19;10.00;;;7.50;;
781;SDS011;374;52.568;13.402;2023-07-29T07:02:44;8.80;;;7.90;;
781;SDS011;374;52.568;13.402;2023-07-29T07:05:10;8.20;;;6.83;;
781;SDS011;374;52.568;13.402;2023-07-29T07:07:35;8.60;;;7.50;;
781;SDS011;374;52.568;13.402;2023-07-29T07:10:01;8.00;;;7.30;;
781;SDS011;374;52.568;13.402;2023-07-29T07:12:26;9.23;;;8.20;;
781;SDS011;374;52.568;13.402;2023-07-29T07:14:52;8.80;;;8.10;;
781;SDS011;374;52.568;13.402;2023-07-29T07:17:17;8.07;;;7.37;;
781;SDS011;374;52.568;13.402;2023-07-29T07:19:43;8.60;;;7.87;;
781;SDS011;374;52.568;13.402;2023-07-29T07:22:09;8.10;;;7.40;;
781;SDS011;374;52.568;13.402;2023-07-29T07:24:34;8.90;;;8.00;;
781;SDS011;374;52.568;13.402;2023-07-29T07:27:00;10.07;;;9.07;;
781;SDS011;374;52.568;13.402;2023-07-29T07:29:25;8.93;;;8.07;;
781;SDS011;374;52.568;13.402;2023-07-29T07:31:51;12.40;;;11.17;;
781;SDS011;374;52.568;13.402;2023-07-29T07:34:19;12.50;;;11.40;;
781;SDS011;374;52.568;13.402;2023-07-29T07:36:45;13.83;;;12.47;;
781;SDS011;374;52.568;13.402;2023-07-29T07:39:10;14.60;;;13.30;;
781;SDS011;374;52.568;13.402;2023-07-29T07:41:36;12.47;;;11.47;;
781;SDS011;374;52.568;13.402;2023-07-29T07:44:01;13.20;;;12.00;;
781;SDS011;374;52.568;13.402;2023-07-29T07:46:28;13.50;;;11.80;;
781;SDS011;374;52.568;13.402;2023-07-29T07:48:56;14.67;;;13.20;;
781;SDS011;374;52.568;13.402;2023-07-29T07:51:21;14.37;;;13.20;;
781;SDS011;374;52.568;13.402;2023-07-29T07:53:47;14.10;;;12.77;;
781;SDS011;374;52.568;13.402;2023-07-29T07:56:13;12.57;;;11.57;;
781;SDS011;374;52.568;13.402;2023-07-29T07:58:38;12.60;;;11.40;;
781;SDS011;374;52.568;13.402;2023-07-29T08:01:04;11.53;;;10.50;;
781;SDS011;374;52.568;13.402;2023-07-29T08:03:31;12.67;;;11.57;;
781;SDS011;374;52.568;13.402;2023-07-29T08:05:57;12.50;;;11.50;;
781;SDS011;374;52.568;13.402;2023-07-29T08:08:23;12.97;;;11.67;;
781;SDS011;374;52.568;13.402;2023-07-29T08:10:48;13.90;;;12.70;;
781;SDS011;374;52.568;13.402;2023-07-29T08:13:13;14.00;;;12.80;;
781;SDS011;374;52.568;13.402;2023-07-29T08:15:39;12.90;;;11.87;;
781;SDS011;374;52.568;13.402;2023-07-29T08:18:06;12.97;;;11.97;;
781;SDS011;374;52.568;13.402;2023-07-29T08:20:31;14.30;;;13.10;;
781;SDS011;374;52.568;13.402;2023-07-29T08:22:57;16.13;;;14.73;;
781;SDS011;374;52.568;13.402;2023-07-29T08:25:23;13.00;;;11.90;;
781;SDS011;374;52.568;13.402;2023-07-29T08:27:49;12.07;;;11.07;;
781;SDS011;374;52.568;13.402;2023-07-29T08:30:14;10.93;;;9.97;;
781;SDS011;374;52.568;13.402;2023-07-29T08:32:41;10.70;;;9.80;;
781;SDS011;374;52.568;13.402;2023-07-29T08:35:06;10.30;;;9.27;;
781;SDS011;374;52.568;13.402;2023-07-29T08:37:32;9.60;;;8.80;;
781;SDS011;374;52.568;13.402;2023-07-29T08:39:58;8.03;;;7.43;;
781;SDS011;374;52.568;13.402;2023-07-29T08:42:24;10.47;;;8.63;;
781;SDS011;374;52.568;13.402;2023-07-29T08:44:54;10.20;;;9.10;;
781;SDS011;374;52.568;13.402;2023-07-29T08:47:20;9.37;;;8.67;;
781;SDS011;374;52.568;13.402;2023-07-29T08:49:46;9.23;;;8.40;;
781;SDS011;374;52.568;13.402;2023-07-29T08:52:15;8.20;;;7.50;;
781;SDS011;374;52.568;13.402;2023-07-29T08:54:41;7.70;;;7.00;;
781;SDS011;374;52.568;13.402;2023-07-29T08:57:06;7.63;;;7.07;;
781;SDS011;374;52.568;13.402;2023-07-29T08:59:32;7.73;;;7.13;;
781;SDS011;374;52.568;13.402;2023-07-29T09:01:58;7.83;;;7.30;;
781;SDS011;374;52.568;13.402;2023-07-29T09:04:24;8.03;;;6.97;;
781;SDS011;374;52.568;13.402;2023-07-29T09:06:50;7.60;;;7.00;;
781;SDS011;374;52.568;13.402;2023-07-29T09:09:16;7.97;;;7.27;;
781;SDS011;374;52.568;13.402;2023-07-29T09:11:42;7.20;;;6.60;;
781;SDS011;374;52.568;13.402;2023-07-29T09:14:08;7.43;;;6.93;;
781;SDS011;374;52.568;13.402;2023-07-29T09:16:35;8.30;;;7.07;;
781;SDS011;374;52.568;13.402;2023-07-29T09:19:04;10.87;;;7.40;;
781;SDS011;374;52.568;13.402;2023-07-29T09:21:30;7.67;;;7.10;;
781;SDS011;374;52.568;13.402;2023-07-29T09:23:56;7.47;;;6.90;;
781;SDS011;374;52.568;13.402;2023-07-29T09:26:22;7.07;;;6.53;;
781;SDS011;374;52.568;13.402;2023-07-29T09:28:51;7.20;;;6.60;;
781;SDS011;374;52.568;13.402;2023-07-29T09:31:19;6.40;;;5.90;;
781;SDS011;374;52.568;13.402;2023-07-29T09:33:46;6.37;;;5.87;;
781;SDS011;374;52.568;13.402;2023-07-29T09:36:11;6.73;;;6.13;;
781;SDS011;374;52.568;13.402;2023-07-29T09:38:37;5.90;;;5.50;;
781;SDS011;374;52.568;13.402;2023-07-29T09:41:03;7.00;;;6.40;;
781;SDS011;374;52.568;13.402;2023-07-29T09:43:29;7.03;;;6.33;;
781;SDS011;374;52.568;13.402;2023-07-29T09:45:56;6.30;;;5.80;;
781;SDS011;374;52.568;13.402;2023-07-29T09:48:26;5.30;;;4.90;;
781;SDS011;374;52.568;13.402;2023-07-29T09:50:51;6.53;;;6.03;;
781;SDS011;374;52.568;13.402;2023-07-29T09:53:17;5.57;;;5.13;;
781;SDS011;374;52.568;13.402;2023-07-29T09:55:46;6.27;;;5.80;;
781;SDS011;374;52.568;13.402;2023-07-29T09:58:13;6.80;;;6.30;;
781;SDS011;374;52.568;13.402;2023-07-29T10:00:39;7.10;;;6.50;;
781;SDS011;374;52.568;13.402;2023-07-29T10:03:05;6.20;;;5.70;;
781;SDS011;374;52.568;13.402;2023-07-29T10:05:32;6.50;;;6.00;;
781;SDS011;374;52.568;13.402;2023-07-29T10:08:00;6.17;;;5.73;;
781;SDS011;374;52.568;13.402;2023-07-29T10:10:27;6.03;;;5.43;;
781;SDS011;374;52.568;13.402;2023-07-29T10:12:54;5.50;;;5.10;;
781;SDS011;374;52.568;13.402;2023-07-29T10:15:21;6.37;;;5.53;;
781;SDS011;374;52.568;13.402;2023-07-29T10:17:47;6.00;;;5.60;;
781;SDS011;374;52.568;13.402;2023-07-29T10:20:14;6.70;;;6.20;;
781;SDS011;374;52.568;13.402;2023-07-29T10:22:41;7.20;;;6.60;;
781;SDS011;374;52.568;13.402;2023-07-29T10:25:08;6.23;;;5.63;;
781;SDS011;374;52.568;13.402;2023-07-29T10:27:47;5.33;;;4.80;;
781;SDS011;374;52.568;13.402;2023-07-29T10:30:14;6.57;;;5.97;;
781;SDS011;374;52.568;13.402;2023-07-29T10:32:43;6.57;;;6.07;;
781;SDS011;374;52.568;13.402;2023-07-29T10:35:10;5.33;;;4.93;;
781;SDS011;374;52.568;13.402;2023-07-29T10:37:38;5.60;;;5.20;;
781;SDS011;374;52.568;13.402;2023-07-29T10:40:09;5.20;;;4.80;;
781;SDS011;374;52.568;13.402;2023-07-29T10:42:36;4.70;;;4.40;;
781;SDS011;374;52.568;13.402;2023-07-29T10:45:24;5.70;;;5.30;;
781;SDS011;374;52.568;13.402;2023-07-29T10:47:49;5.50;;;5.00;;
781;SDS011;374;52.568;13.402;2023-07-29T10:50:21;5.57;;;5.17;;
781;SDS011;374;52.568;13.402;2023-07-29T10:52:51;5.67;;;5.20;;
781;SDS011;374;52.568;13.402;2023-07-29T10:55:24;4.67;;;4.23;;
781;SDS011;374;52.568;13.402;2023-07-29T11:00:55;6.50;;;6.00;;
781;SDS011;374;52.568;13.402;2023-07-29T11:03:20;6.63;;;6.13;;
781;SDS011;374;52.568;13.402;2023-07-29T11:05:50;6.33;;;5.73;;
781;SDS011;374;52.568;13.402;2023-07-29T11:08:49;6.30;;;4.80;;
781;SDS011;374;52.568;13.402;2023-07-29T11:11:12;5.10;;;4.67;;
781;SDS011;374;52.568;13.402;2023-07-29T11:13:37;5.70;;;5.20;;
781;SDS011;374;52.568;13.402;2023-07-29T11:16:04;4.80;;;4.50;;
781;SDS011;374;52.568;13.402;2023-07-29T11:18:34;4.60;;;4.30;;
781;SDS011;374;52.568;13.402;2023-07-29T11:21:01;5.83;;;5.17;;
781;SDS011;374;52.568;13.402;2023-07-29T11:23:28;5.30;;;4.00;;
781;SDS011;374;52.568;13.402;2023-07-29T11:25:59;4.63;;;4.33;;
781;SDS011;374;52.568;13.402;2023-07-29T11:28:25;4.07;;;3.50;;
781;SDS011;374;52.568;13.402;2023-07-29T11:30:51;3.83;;;3.17;;
781;SDS011;374;52.568;13.402;2023-07-29T11:33:18;4.17;;;3.03;;
781;SDS011;374;52.568;13.402;2023-07-29T11:35:44;3.27;;;2.80;;
781;SDS011;374;52.568;13.402;2023-07-29T11:38:14;2.20;;;2.10;;
781;SDS011;374;52.568;13.402;2023-07-29T11:40:40;4.17;;;1.87;;
781;SDS011;374;52.568;13.402;2023-07-29T11:43:06;1.60;;;1.50;;
781;SDS011;374;52.568;13.402;2023-07-29T11:45:31;2.43;;;2.20;;
781;SDS011;374;52.568;13.402;2023-07-29T11:47:58;2.50;;;2.30;;
781;SDS011;374;52.568;13.402;2023-07-29T11:50:24;2.07;;;1.87;;
781;SDS011;374;52.568;13.402;2023-07-29T11:52:49;4.73;;;2.07;;
781;SDS011;374;52.568;13.402;2023-07-29T11:55:15;1.70;;;1.60;;
781;SDS011;374;52.568;13.402;2023-07-29T11:57:41;1.77;;;1.67;;
781;SDS011;374;52.568;13.402;2023-07-29T12:00:08;1.90;;;1.40;;
781;SDS011;374;52.568;13.402;2023-07-29T12:02:39;2.20;;;2.00;;
781;SDS011;374;52.568;13.402;2023-07-29T12:05:05;4.73;;;1.83;;
781;SDS011;374;52.568;13.402;2023-07-29T12:07:33;3.13;;;2.50;;
781;SDS011;374;52.568;13.402;2023-07-29T12:09:59;12.10;;;2.50;;
781;SDS011;374;52.568;13.402;2023-07-29T12:12:24;1.90;;;1.80;;
781;SDS011;374;52.568;13.402;2023-07-29T12:14:50;2.03;;;1.93;;
781;SDS011;374;52.568;13.402;2023-07-29T12:17:18;2.63;;;2.37;;
781;SDS011;374;52.568;13.402;2023-07-29T12:19:44;2.30;;;2.10;;
781;SDS011;374;52.568;13.402;2023-07-29T12:22:10;2.90;;;1.83;;
781;SDS011;374;52.568;13.402;2023-07-29T12:24:36;2.83;;;2.13;;
781;SDS011;374;52.568;13.402;2023-07-29T12:27:03;2.17;;;1.80;;
781;SDS011;374;52.568;13.402;2023-07-29T12:29:29;2.20;;;2.00;;
781;SDS011;374;52.568;13.402;2023-07-29T12:31:58;2.20;;;1.80;;
781;SDS011;374;52.568;13.402;2023-07-29T12:34:29;2.73;;;2.20;;
781;SDS011;374;52.568;13.402;2023-07-29T12:36:55;3.43;;;1.90;;
781;SDS011;374;52.568;13.402;2023-07-29T12:39:24;2.37;;;2.17;;
781;SDS011;374;52.568;13.402;2023-07-29T12:41:53;4.00;;;1.97;;
781;SDS011;374;52.568;13.402;2023-07-29T12:44:32;2.03;;;1.93;;
781;SDS011;374;52.568;13.402;2023-07-29T12:47:00;2.20;;;2.00;;
781;SDS011;374;52.568;13.402;2023-07-29T12:49:27;3.03;;;2.57;;
781;SDS011;374;52.568;13.402;2023-07-29T12:51:54;5.40;;;4.83;;
781;SDS011;374;52.568;13.402;2023-07-29T12:54:20;4.83;;;4.33;;
781;SDS011;374;52.568;13.402;2023-07-29T12:56:45;4.37;;;3.97;;
781;SDS011;374;52.568;13.402;2023-07-29T12:59:11;4.73;;;4.33;;
781;SDS011;374;52.568;13.402;2023-07-29T13:01:36;5.13;;;4.73;;
781;SDS011;374;52.568;13.402;2023-07-29T13:04:04;5.43;;;5.03;;
781;SDS011;374;52.568;13.402;2023-07-29T13:06:30;5.90;;;4.70;;
781;SDS011;374;52.568;13.402;2023-07-29T13:08:55;5.17;;;4.87;;
781;SDS011;374;52.568;13.402;2023-07-29T13:11:21;6.50;;;4.80;;
781;SDS011;374;52.568;13.402;2023-07-29T13:13:46;4.70;;;4.40;;
781;SDS011;374;52.568;13.402;2023-07-29T13:16:12;5.63;;;5.13;;
781;SDS011;374;52.568;13.402;2023-07-29T13:18:38;5.30;;;4.80;;
781;SDS011;374;52.568;13.402;2023-07-29T13:21:03;5.20;;;4.80;;
781;SDS011;374;52.568;13.402;2023-07-29T13:23:32;5.33;;;4.83;;
781;SDS011;374;52.568;13.402;2023-07-29T13:25:57;5.17;;;4.80;;
781;SDS011;374;52.568;13.402;2023-07-29T13:28:28;5.17;;;4.77;;
781;SDS011;374;52.568;13.402;2023-07-29T13:30:56;5.83;;;5.33;;
781;SDS011;374;52.568;13.402;2023-07-29T13:33:21;5.07;;;4.67;;
781;SDS011;374;52.568;13.402;2023-07-29T13:35:49;5.80;;;5.40;;
781;SDS011;374;52.568;13.402;2023-07-29T13:38:15;6.70;;;6.10;;
781;SDS011;374;52.568;13.402;2023-07-29T13:40:41;6.63;;;6.13;;
781;SDS011;374;52.568;13.402;2023-07-29T13:43:06;6.60;;;6.00;;
781;SDS011;374;52.568;13.402;2023-07-29T13:45:33;5.57;;;5.27;;
781;SDS011;374;52.568;13.402;2023-07-29T13:48:02;6.20;;;5.67;;
781;SDS011;374;52.568;13.402;2023-07-29T13:50:28;5.03;;;4.63;;
781;SDS011;374;52.568;13.402;2023-07-29T13:52:53;5.10;;;4.70;;
781;SDS011;374;52.568;13.402;2023-07-29T13:55:19;4.70;;;4.40;;
781;SDS011;374;52.568;13.402;2023-07-29T13:57:44;3.90;;;3.70;;
781;SDS011;374;52.568;13.402;2023-07-29T14:00:13;4.63;;;4.33;;
781;SDS011;374;52.568;13.402;2023-07-29T14:02:38;3.63;;;3.43;;
781;SDS011;374;52.568;13.402;2023-07-29T14:05:04;3.40;;;3.20;;
781;SDS011;374;52.568;13.402;2023-07-29T14:07:31;3.43;;;3.23;;
781;SDS011;374;52.568;13.402;2023-07-29T14:09:57;3.20;;;3.00;;
781;SDS011;374;52.568;13.402;2023-07-29T14:12:23;3.20;;;2.90;;
781;SDS011;374;52.568;13.402;2023-07-29T14:14:48;3.93;;;3.50;;
781;SDS011;374;52.568;13.402;2023-07-29T14:17:21;3.23;;;3.03;;
781;SDS011;374;52.568;13.402;2023-07-29T14:19:46;3.50;;;3.20;;
781;SDS011;374;52.568;13.402;2023-07-29T14:22:12;3.20;;;3.00;;
781;SDS011;374;52.568;13.402;2023-07-29T14:24:37;3.43;;;3.23;;
781;SDS011;374;52.568;13.402;2023-07-29T14:27:03;3.13;;;2.93;;
781;SDS011;374;52.568;13.402;2023-07-29T14:29:28;3.50;;;3.20;;
781;SDS011;374;52.568;13.402;2023-07-29T14:31:54;3.20;;;2.57;;
781;SDS011;374;52.568;13.402;2023-07-29T14:34:19;3.20;;;2.57;;
781;SDS011;374;52.568;13.402;2023-07-29T14:36:45;3.17;;;2.60;;
781;SDS011;374;52.568;13.402;2023-07-29T14:39:16;2.57;;;2.43;;
781;SDS011;374;52.568;13.402;2023-07-29T14:41:41;3.20;;;3.00;;
781;SDS011;374;52.568;13.402;2023-07-29T14:44:07;2.60;;;2.50;;
781;SDS011;374;52.568;13.402;2023-07-29T14:46:32;3.00;;;2.80;;
781;SDS011;374;52.568;13.402;2023-07-29T14:48:58;3.23;;;3.03;;
781;SDS011;374;52.568;13.402;2023-07-29T14:51:23;3.33;;;3.13;;
781;SDS011;374;52.568;13.402;2023-07-29T14:53:49;3.17;;;2.90;;
781;SDS011;374;52.568;13.402;2023-07-29T14:56:14;3.60;;;3.00;;
781;SDS011;374;52.568;13.402;2023-07-29T14:58:42;3.03;;;2.83;;
781;SDS011;374;52.568;13.402;2023-07-29T15:01:11;3.00;;;2.80;;
781;SDS011;374;52.568;13.402;2023-07-29T15:03:39;4.03;;;2.90;;
781;SDS011;374;52.568;13.402;2023-07-29T15:06:07;4.07;;;3.53;;
781;SDS011;374;52.568;13.402;2023-07-29T15:08:36;3.83;;;3.53;;
781;SDS011;374;52.568;13.402;2023-07-29T15:11:02;4.30;;;3.90;;
781;SDS011;374;52.568;13.402;2023-07-29T15:13:27;3.23;;;3.03;;
781;SDS011;374;52.568;13.402;2023-07-29T15:15:55;4.80;;;4.50;;
781;SDS011;374;52.568;13.402;2023-07-29T15:18:21;4.50;;;4.20;;
781;SDS011;374;52.568;13.402;2023-07-29T15:20:46;4.13;;;3.83;;
781;SDS011;374;52.568;13.402;2023-07-29T15:23:12;3.37;;;3.17;;